Time;durP1;ratioP1;P1;durP2;ratioP2;P2;SDS_P1;SDS_P2;PMS_P1;PMS_P2;Temp;Humidity;BMP_temperature;BMP_pressure;BME280_temperature;BME280_humidity;BME280_pressure;Samples;Min_cycle;Max_cycle;Signal;HPM_P1;HPM_P2
2023/08/05 00:00:12;;;;;;;104.72;15.48;;;;;;;;;;5033531;28;20072;-52
2023/08/05 00:02:39;;;;;;;151.40;20.23;;;;;;;;;;5015628;28;20053;-52
2023/08/05 00:05:07;;;;;;;138.35;17.75;;;;;;;;;;5015769;28;20033;-51
2023/08/05 00:07:34;;;;;;;113.25;16.30;;;;;;;;;;5033377;28;20022;-53
2023/08/05 00:10:01;;;;;;;94.38;15.88;;;;;;;;;;5029758;28;20104;-55
2023/08/05 00:12:28;;;;;;;107.55;16.27;;;;;;;;;;5023468;28;20041;-53
2023/08/05 00:14:55;;;;;;;95.97;15.68;;;;;;;;;;5033419;28;20026;-54
2023/08/05 00:17:22;;;;;;;95.70;14.63;;;;;;;;;;5033295;28;20105;-53
2023/08/05 00:19:50;;;;;;;90.60;16.38;;;;;;;;;;5033439;28;20017;-55
2023/08/05 00:22:17;;;;;;;89.07;16.05;;;;;;;;;;5015066;28;20064;-55
2023/08/05 00:24:44;;;;;;;91.47;15.35;;;;;;;;;;5032850;28;20475;-53
2023/08/05 00:27:12;;;;;;;96.53;16.13;;;;;;;;;;5033112;28;20026;-54
2023/08/05 00:29:39;;;;;;;100.30;15.55;;;;;;;;;;5032655;28;20439;-53
2023/08/05 00:32:06;;;;;;;70.65;14.43;;;;;;;;;;5023056;28;20077;-54
2023/08/05 00:34:34;;;;;;;82.30;15.27;;;;;;;;;;5013196;28;20080;-53
2023/08/05 00:37:01;;;;;;;78.43;14.50;;;;;;;;;;5025615;28;20361;-52
2023/08/05 00:39:28;;;;;;;74.32;15.18;;;;;;;;;;5014505;28;20084;-52
2023/08/05 00:41:55;;;;;;;75.85;15.20;;;;;;;;;;5030039;28;20075;-55
2023/08/05 00:44:23;;;;;;;81.68;15.90;;;;;;;;;;5032811;28;20031;-52
2023/08/05 00:46:50;;;;;;;87.75;15.73;;;;;;;;;;5032305;28;20025;-55
2023/08/05 00:49:18;;;;;;;83.22;15.80;;;;;;;;;;5032527;28;20056;-54
2023/08/05 00:51:45;;;;;;;87.65;16.55;;;;;;;;;;5032795;28;20076;-54
2023/08/05 00:54:12;;;;;;;92.82;16.60;;;;;;;;;;5032277;28;20025;-53
2023/08/05 00:56:39;;;;;;;114.65;18.23;;;;;;;;;;5032514;28;20576;-54
2023/08/05 00:59:06;;;;;;;107.15;17.85;;;;;;;;;;5032175;28;20025;-51
2023/08/05 01:01:33;;;;;;;113.18;18.52;;;;;;;;;;5032649;28;20029;-52
2023/08/05 01:04:00;;;;;;;110.55;18.27;;;;;;;;;;5031216;28;20053;-52
2023/08/05 01:06:27;;;;;;;112.80;19.02;;;;;;;;;;5014051;28;20033;-54
2023/08/05 01:08:55;;;;;;;115.20;19.10;;;;;;;;;;5031287;28;20502;-57
2023/08/05 01:11:23;;;;;;;110.60;17.45;;;;;;;;;;5021788;28;20046;-52
2023/08/05 01:13:50;;;;;;;101.47;16.75;;;;;;;;;;5022827;28;20037;-56
2023/08/05 01:16:17;;;;;;;111.68;17.60;;;;;;;;;;5013918;28;20635;-55
2023/08/05 01:18:45;;;;;;;110.90;18.25;;;;;;;;;;5031887;28;20116;-54
2023/08/05 01:21:19;;;;;;;101.70;18.10;;;;;;;;;;5028721;28;20029;-54
2023/08/05 01:23:52;;;;;;;117.47;19.02;;;;;;;;;;5021535;28;20062;-47
2023/08/05 01:26:29;;;;;;;92.22;17.25;;;;;;;;;;5088513;27;20462;-48
2023/08/05 01:28:56;;;;;;;96.35;18.10;;;;;;;;;;5088473;28;20030;-53
2023/08/05 01:31:23;;;;;;;89.15;16.85;;;;;;;;;;5086712;28;20024;-50
2023/08/05 01:33:51;;;;;;;96.15;16.60;;;;;;;;;;5088457;28;20032;-47
2023/08/05 01:36:22;;;;;;;89.45;16.73;;;;;;;;;;5088213;28;20032;-48
2023/08/05 01:38:49;;;;;;;86.43;16.40;;;;;;;;;;5087832;28;20533;-49
2023/08/05 01:41:16;;;;;;;86.90;16.23;;;;;;;;;;5062816;28;20055;-52
2023/08/05 01:43:43;;;;;;;96.22;16.77;;;;;;;;;;5078880;28;20032;-47
2023/08/05 01:46:10;;;;;;;77.97;16.02;;;;;;;;;;5087941;28;20029;-48
2023/08/05 01:48:37;;;;;;;78.57;15.90;;;;;;;;;;5088303;28;20501;-45
2023/08/05 01:51:06;;;;;;;63.78;13.80;;;;;;;;;;5086178;28;20130;-54
2023/08/05 01:53:34;;;;;;;80.55;16.95;;;;;;;;;;5087257;28;20355;-47
2023/08/05 01:56:01;;;;;;;62.45;14.32;;;;;;;;;;5087682;28;20039;-50
2023/08/05 01:58:28;;;;;;;76.82;15.60;;;;;;;;;;5087622;28;20032;-48
2023/08/05 02:00:55;;;;;;;60.58;14.48;;;;;;;;;;5078531;28;20562;-57
2023/08/05 02:03:22;;;;;;;82.53;16.02;;;;;;;;;;5072596;28;20036;-52
2023/08/05 02:05:50;;;;;;;74.05;15.77;;;;;;;;;;5073570;28;20051;-50
2023/08/05 02:08:17;;;;;;;75.82;16.17;;;;;;;;;;5081537;28;20056;-52
2023/08/05 02:10:44;;;;;;;82.13;16.45;;;;;;;;;;5067588;28;20024;-52
2023/08/05 02:13:11;;;;;;;81.85;16.30;;;;;;;;;;5061535;28;20036;-55
2023/08/05 02:15:38;;;;;;;70.65;16.00;;;;;;;;;;5056780;28;20399;-51
2023/08/05 02:18:06;;;;;;;72.45;16.13;;;;;;;;;;5065465;28;20098;-51
2023/08/05 02:20:33;;;;;;;68.10;15.57;;;;;;;;;;5067154;28;20025;-50
2023/08/05 02:23:00;;;;;;;80.03;15.63;;;;;;;;;;5066730;28;20130;-50
2023/08/05 02:25:27;;;;;;;58.97;14.90;;;;;;;;;;5066769;28;20044;-47
2023/08/05 02:27:54;;;;;;;60.88;14.88;;;;;;;;;;5076321;28;20033;-49
2023/08/05 02:30:21;;;;;;;56.35;14.88;;;;;;;;;;5071620;28;20029;-55
2023/08/05 02:32:49;;;;;;;71.15;14.85;;;;;;;;;;5065924;28;20505;-51
2023/08/05 02:35:16;;;;;;;66.47;14.93;;;;;;;;;;5069233;28;20113;-51
2023/08/05 02:37:53;;;;;;;65.53;14.88;;;;;;;;;;5053887;28;20043;-50
2023/08/05 02:40:21;;;;;;;65.78;15.18;;;;;;;;;;5053294;28;20036;-48
2023/08/05 02:42:48;;;;;;;64.43;15.40;;;;;;;;;;5052939;28;20055;-48
2023/08/05 02:45:15;;;;;;;69.18;15.55;;;;;;;;;;5052842;28;20587;-49
2023/08/05 02:47:42;;;;;;;56.03;15.00;;;;;;;;;;5052886;28;20078;-51
2023/08/05 02:50:09;;;;;;;73.43;14.65;;;;;;;;;;5053101;28;20025;-51
2023/08/05 02:52:36;;;;;;;62.40;15.05;;;;;;;;;;5052593;28;20033;-49
2023/08/05 02:55:04;;;;;;;58.35;15.00;;;;;;;;;;5052904;28;20038;-50
2023/08/05 02:57:31;;;;;;;61.25;15.50;;;;;;;;;;5052959;28;20382;-51
2023/08/05 02:59:58;;;;;;;55.58;13.82;;;;;;;;;;5052567;28;20106;-52
2023/08/05 03:02:25;;;;;;;63.95;15.23;;;;;;;;;;5052703;28;20040;-49
2023/08/05 03:04:52;;;;;;;56.80;14.25;;;;;;;;;;5052629;28;20041;-51
2023/08/05 03:07:19;;;;;;;59.90;13.70;;;;;;;;;;5052576;28;20390;-49
2023/08/05 03:09:46;;;;;;;55.92;14.13;;;;;;;;;;5052685;28;20044;-48
2023/08/05 03:12:13;;;;;;;64.30;14.60;;;;;;;;;;5052454;28;20036;-48
2023/08/05 03:14:40;;;;;;;56.65;14.40;;;;;;;;;;5053043;28;20419;-51
2023/08/05 03:17:07;;;;;;;57.03;13.93;;;;;;;;;;5054589;28;20035;-52
2023/08/05 03:19:34;;;;;;;56.83;13.32;;;;;;;;;;5063351;28;20025;-49
2023/08/05 03:22:01;;;;;;;53.83;13.30;;;;;;;;;;5072420;28;20601;-48
2023/08/05 03:24:28;;;;;;;53.20;13.52;;;;;;;;;;5072075;28;20044;-52
2023/08/05 03:26:55;;;;;;;60.05;14.02;;;;;;;;;;5072082;28;20125;-52
2023/08/05 03:29:22;;;;;;;54.63;13.10;;;;;;;;;;5064386;28;20036;-52
2023/08/05 03:31:49;;;;;;;52.50;13.88;;;;;;;;;;5064466;28;20021;-51
2023/08/05 03:34:17;;;;;;;52.70;13.65;;;;;;;;;;5061465;28;20084;-51
2023/08/05 03:36:44;;;;;;;50.83;13.73;;;;;;;;;;5063231;28;20055;-51
2023/08/05 03:39:11;;;;;;;63.42;13.85;;;;;;;;;;5062535;28;20031;-49
2023/08/05 03:41:40;;;;;;;54.05;13.57;;;;;;;;;;5060000;28;20028;-48
2023/08/05 03:44:07;;;;;;;53.05;13.32;;;;;;;;;;5062548;28;20542;-50
2023/08/05 03:46:34;;;;;;;50.33;13.77;;;;;;;;;;5060755;28;20170;-51
2023/08/05 03:49:02;;;;;;;60.70;13.50;;;;;;;;;;5062217;28;20056;-50
2023/08/05 03:51:29;;;;;;;50.13;12.60;;;;;;;;;;5062235;28;20102;-51
2023/08/05 03:53:56;;;;;;;50.38;13.18;;;;;;;;;;5061057;28;20025;-52
2023/08/05 03:56:26;;;;;;;51.65;13.60;;;;;;;;;;5058846;28;20554;-49
2023/08/05 03:58:55;;;;;;;55.53;13.27;;;;;;;;;;5061550;28;20120;-52
2023/08/05 04:01:22;;;;;;;55.92;13.07;;;;;;;;;;5058431;28;20498;-52
2023/08/05 04:03:52;;;;;;;55.58;13.60;;;;;;;;;;5061749;28;20036;-50
2023/08/05 04:06:20;;;;;;;52.13;12.75;;;;;;;;;;5062828;28;20111;-52
2023/08/05 04:08:53;;;;;;;47.97;13.38;;;;;;;;;;5061716;28;20041;-50
2023/08/05 04:11:23;;;;;;;48.92;13.05;;;;;;;;;;5060754;28;20029;-51
2023/08/05 04:13:52;;;;;;;47.03;12.35;;;;;;;;;;5061421;28;20024;-49
2023/08/05 04:16:21;;;;;;;51.53;12.85;;;;;;;;;;5062644;28;20436;-53
2023/08/05 04:18:49;;;;;;;53.63;13.63;;;;;;;;;;5061540;28;20037;-51
2023/08/05 04:21:16;;;;;;;48.90;12.45;;;;;;;;;;5059607;28;20032;-53
2023/08/05 04:23:43;;;;;;;43.85;12.25;;;;;;;;;;5062550;28;20064;-52
2023/08/05 04:26:11;;;;;;;51.20;12.85;;;;;;;;;;5061244;28;20052;-50
2023/08/05 04:28:38;;;;;;;42.83;11.32;;;;;;;;;;5060507;28;20406;-52
2023/08/05 04:31:05;;;;;;;38.63;11.68;;;;;;;;;;5062214;28;20028;-53
2023/08/05 04:33:32;;;;;;;41.60;12.32;;;;;;;;;;5061818;28;20525;-51
2023/08/05 04:35:59;;;;;;;44.28;11.35;;;;;;;;;;5060285;28;20020;-50
2023/08/05 04:38:26;;;;;;;38.47;11.25;;;;;;;;;;5061951;28;20028;-51
2023/08/05 04:40:53;;;;;;;41.10;11.90;;;;;;;;;;5059864;28;20032;-51
2023/08/05 04:43:21;;;;;;;45.45;11.27;;;;;;;;;;5062184;28;20060;-49
2023/08/05 04:45:51;;;;;;;41.20;11.93;;;;;;;;;;5060993;28;20115;-52
2023/08/05 04:48:21;;;;;;;46.63;12.18;;;;;;;;;;5060221;28;20549;-50
2023/08/05 04:50:48;;;;;;;43.67;11.35;;;;;;;;;;5061063;28;20116;-49
2023/08/05 04:53:15;;;;;;;39.58;11.13;;;;;;;;;;5060492;28;20040;-49
2023/08/05 04:55:42;;;;;;;42.55;11.32;;;;;;;;;;5062149;28;20424;-50
2023/08/05 04:58:11;;;;;;;37.90;11.50;;;;;;;;;;5061102;28;20064;-50
2023/08/05 05:00:38;;;;;;;45.47;10.88;;;;;;;;;;5059766;28;20040;-50
2023/08/05 05:03:07;;;;;;;40.08;11.43;;;;;;;;;;5061647;28;20039;-52
2023/08/05 05:05:36;;;;;;;32.95;10.40;;;;;;;;;;5061434;28;20088;-50
2023/08/05 05:08:03;;;;;;;37.53;11.82;;;;;;;;;;5057403;28;20104;-51
2023/08/05 05:10:30;;;;;;;41.67;11.35;;;;;;;;;;5060944;28;20091;-49
2023/08/05 05:12:58;;;;;;;42.70;11.23;;;;;;;;;;5068981;28;20155;-49
2023/08/05 05:15:25;;;;;;;39.72;11.40;;;;;;;;;;5057813;28;20040;-51
2023/08/05 05:17:52;;;;;;;37.80;11.23;;;;;;;;;;5060739;28;20036;-47
2023/08/05 05:20:19;;;;;;;35.95;10.75;;;;;;;;;;5059370;28;20025;-50
2023/08/05 05:22:46;;;;;;;42.33;11.45;;;;;;;;;;5061512;28;20029;-48
2023/08/05 05:25:13;;;;;;;43.67;11.55;;;;;;;;;;5068037;28;20498;-47
2023/08/05 05:27:40;;;;;;;42.92;10.27;;;;;;;;;;5059798;28;20037;-48
2023/08/05 05:30:07;;;;;;;41.03;11.18;;;;;;;;;;5061212;28;20024;-48
2023/08/05 05:32:34;;;;;;;36.92;9.98;;;;;;;;;;5061222;28;20130;-47
2023/08/05 05:35:02;;;;;;;37.47;11.23;;;;;;;;;;5059598;28;20040;-48
2023/08/05 05:37:29;;;;;;;41.58;11.13;;;;;;;;;;5060711;28;20052;-47
2023/08/05 05:39:56;;;;;;;35.13;10.32;;;;;;;;;;5061467;28;20033;-47
2023/08/05 05:42:24;;;;;;;41.80;10.68;;;;;;;;;;5056946;28;20102;-48
2023/08/05 05:44:52;;;;;;;37.60;10.75;;;;;;;;;;5060652;28;20036;-48
2023/08/05 05:47:23;;;;;;;37.30;10.07;;;;;;;;;;5061656;28;20033;-47
2023/08/05 05:49:49;;;;;;;35.70;10.27;;;;;;;;;;5060585;28;20068;-47
2023/08/05 05:52:17;;;;;;;44.97;10.98;;;;;;;;;;5059724;28;20064;-48
2023/08/05 05:54:44;;;;;;;39.40;9.93;;;;;;;;;;5057491;28;20032;-51
2023/08/05 05:57:11;;;;;;;35.67;10.60;;;;;;;;;;5060361;28;20150;-50
2023/08/05 05:59:39;;;;;;;31.65;9.90;;;;;;;;;;5061550;28;20623;-50
2023/08/05 06:02:09;;;;;;;36.13;10.27;;;;;;;;;;5055230;28;20501;-49
2023/08/05 06:04:36;;;;;;;29.63;8.65;;;;;;;;;;5061068;28;20041;-51
2023/08/05 06:07:03;;;;;;;30.65;9.82;;;;;;;;;;5059266;28;20033;-47
2023/08/05 06:09:31;;;;;;;36.35;9.85;;;;;;;;;;5060536;28;20429;-48
2023/08/05 06:11:58;;;;;;;33.13;9.90;;;;;;;;;;5062950;28;20115;-47
2023/08/05 06:14:26;;;;;;;37.55;9.50;;;;;;;;;;5060965;28;20417;-47
2023/08/05 06:16:53;;;;;;;31.58;9.48;;;;;;;;;;5063891;28;20040;-47
2023/08/05 06:19:20;;;;;;;31.27;9.18;;;;;;;;;;5065080;28;20024;-48
2023/08/05 06:21:47;;;;;;;33.92;9.70;;;;;;;;;;5063478;28;20033;-47
2023/08/05 06:24:14;;;;;;;38.75;10.00;;;;;;;;;;5061490;28;20540;-47
2023/08/05 06:26:41;;;;;;;31.92;8.88;;;;;;;;;;5064835;28;20029;-47
2023/08/05 06:29:08;;;;;;;35.50;10.63;;;;;;;;;;5063540;28;20441;-47
2023/08/05 06:31:35;;;;;;;35.95;9.13;;;;;;;;;;5062024;28;20033;-46
2023/08/05 06:34:02;;;;;;;29.95;8.50;;;;;;;;;;5064653;28;20029;-48
2023/08/05 06:36:29;;;;;;;28.80;8.57;;;;;;;;;;5063600;28;20538;-47
2023/08/05 06:38:56;;;;;;;31.70;9.23;;;;;;;;;;5062986;28;20032;-50
2023/08/05 06:41:23;;;;;;;30.02;8.57;;;;;;;;;;5064626;28;20045;-49
2023/08/05 06:43:50;;;;;;;30.55;8.63;;;;;;;;;;5063480;28;20028;-47
2023/08/05 06:46:19;;;;;;;27.80;8.73;;;;;;;;;;5062649;28;20561;-47
2023/08/05 06:48:46;;;;;;;28.67;8.55;;;;;;;;;;5064231;28;20029;-47
2023/08/05 06:51:13;;;;;;;25.77;8.05;;;;;;;;;;5063793;28;20072;-48
2023/08/05 06:53:44;;;;;;;27.13;7.90;;;;;;;;;;5062263;28;20475;-47
2023/08/05 06:56:11;;;;;;;26.90;8.05;;;;;;;;;;5063390;28;20048;-47
2023/08/05 06:58:38;;;;;;;24.30;8.13;;;;;;;;;;5064346;28;20040;-48
2023/08/05 07:01:05;;;;;;;21.55;7.05;;;;;;;;;;5059918;28;20108;-48
2023/08/05 07:03:32;;;;;;;24.75;7.30;;;;;;;;;;5063078;28;20035;-47
2023/08/05 07:05:59;;;;;;;19.25;7.13;;;;;;;;;;5064118;28;20482;-48
2023/08/05 07:08:27;;;;;;;25.77;6.88;;;;;;;;;;5062492;28;20128;-47
2023/08/05 07:10:55;;;;;;;23.90;7.80;;;;;;;;;;5061499;28;20032;-47
2023/08/05 07:13:22;;;;;;;18.23;6.80;;;;;;;;;;5063959;28;20028;-47
2023/08/05 07:15:49;;;;;;;22.98;7.30;;;;;;;;;;5061434;28;20399;-49
2023/08/05 07:18:16;;;;;;;22.20;6.93;;;;;;;;;;5062413;28;20024;-47
2023/08/05 07:20:43;;;;;;;23.58;6.70;;;;;;;;;;5063846;28;20028;-48
2023/08/05 07:23:10;;;;;;;20.25;6.60;;;;;;;;;;5062518;28;20039;-48
2023/08/05 07:25:37;;;;;;;18.77;6.57;;;;;;;;;;5061855;28;20060;-47
2023/08/05 07:28:04;;;;;;;19.60;6.53;;;;;;;;;;5058325;28;20592;-47
2023/08/05 07:30:31;;;;;;;18.10;6.43;;;;;;;;;;5062784;28;20122;-46
2023/08/05 07:32:58;;;;;;;18.52;6.65;;;;;;;;;;5061615;28;20499;-47
2023/08/05 07:35:29;;;;;;;16.45;6.65;;;;;;;;;;5062282;28;20028;-49
2023/08/05 07:37:56;;;;;;;18.85;6.10;;;;;;;;;;5063223;28;20053;-47
2023/08/05 07:40:23;;;;;;;21.90;6.53;;;;;;;;;;5061505;28;20032;-47
2023/08/05 07:42:52;;;;;;;19.00;6.18;;;;;;;;;;5062690;28;20535;-48
2023/08/05 07:45:21;;;;;;;16.77;6.10;;;;;;;;;;5063357;28;20114;-47
2023/08/05 07:47:48;;;;;;;16.00;5.63;;;;;;;;;;5059649;28;20029;-47
2023/08/05 07:50:16;;;;;;;17.77;5.75;;;;;;;;;;5061993;28;20501;-48
2023/08/05 07:52:44;;;;;;;16.77;5.80;;;;;;;;;;5062987;28;20042;-47
2023/08/05 07:55:11;;;;;;;14.95;5.07;;;;;;;;;;5062150;28;20072;-48
2023/08/05 07:57:40;;;;;;;14.80;5.90;;;;;;;;;;5061521;28;20028;-47
2023/08/05 08:00:09;;;;;;;13.77;5.70;;;;;;;;;;5059021;28;20083;-46
2023/08/05 08:02:38;;;;;;;17.42;5.75;;;;;;;;;;5061362;28;20029;-48
2023/08/05 08:05:07;;;;;;;20.05;6.05;;;;;;;;;;5058163;28;20041;-47
2023/08/05 08:07:34;;;;;;;16.13;5.18;;;;;;;;;;5061724;28;20040;-48
2023/08/05 08:10:01;;;;;;;15.75;5.57;;;;;;;;;;5062878;28;20059;-47
2023/08/05 08:12:28;;;;;;;14.52;5.22;;;;;;;;;;5061352;28;20032;-48
2023/08/05 08:14:55;;;;;;;12.02;4.78;;;;;;;;;;5061446;28;20101;-47
2023/08/05 08:17:22;;;;;;;15.90;4.88;;;;;;;;;;5062694;28;20104;-51
2023/08/05 08:19:50;;;;;;;12.35;5.07;;;;;;;;;;5061478;28;20032;-48
2023/08/05 08:22:17;;;;;;;10.95;4.47;;;;;;;;;;5060998;28;20036;-48
2023/08/05 08:24:44;;;;;;;15.85;4.63;;;;;;;;;;5062387;28;20044;-48
2023/08/05 08:27:11;;;;;;;12.43;4.90;;;;;;;;;;5061429;28;20155;-47
2023/08/05 08:29:38;;;;;;;13.77;4.72;;;;;;;;;;5060804;28;20060;-48
2023/08/05 08:32:05;;;;;;;13.73;4.70;;;;;;;;;;5057019;28;20024;-47
2023/08/05 08:34:32;;;;;;;16.75;5.00;;;;;;;;;;5061034;28;20031;-46
2023/08/05 08:37:00;;;;;;;14.27;4.75;;;;;;;;;;5060590;28;20028;-49
2023/08/05 08:39:27;;;;;;;9.75;4.07;;;;;;;;;;5062274;28;20476;-47
2023/08/05 08:41:55;;;;;;;10.52;3.95;;;;;;;;;;5061508;28;20043;-47
2023/08/05 08:44:23;;;;;;;8.55;4.03;;;;;;;;;;5060116;28;20083;-47
2023/08/05 08:46:50;;;;;;;11.98;4.35;;;;;;;;;;5061813;28;20036;-47
2023/08/05 08:49:17;;;;;;;10.88;4.30;;;;;;;;;;5061961;28;20482;-47
2023/08/05 08:51:48;;;;;;;14.35;4.53;;;;;;;;;;5060160;28;20167;-47
2023/08/05 08:54:16;;;;;;;9.63;4.28;;;;;;;;;;5060794;28;20045;-47
2023/08/05 08:56:43;;;;;;;8.98;4.00;;;;;;;;;;5062192;28;20035;-47
2023/08/05 08:59:10;;;;;;;8.27;3.80;;;;;;;;;;5060774;28;20029;-47
2023/08/05 09:01:39;;;;;;;8.45;3.78;;;;;;;;;;5060428;28;20028;-49
2023/08/05 09:04:08;;;;;;;11.68;4.43;;;;;;;;;;5061976;28;20759;-48
2023/08/05 09:06:35;;;;;;;11.85;4.25;;;;;;;;;;5061265;28;20048;-47
2023/08/05 09:09:02;;;;;;;13.20;3.80;;;;;;;;;;5059873;28;20029;-49
2023/08/05 09:11:29;;;;;;;11.32;4.43;;;;;;;;;;5061485;28;20028;-48
2023/08/05 09:13:57;;;;;;;11.50;4.10;;;;;;;;;;5061523;28;20516;-47
2023/08/05 09:16:26;;;;;;;10.60;3.80;;;;;;;;;;5059760;28;20386;-49
2023/08/05 09:18:54;;;;;;;10.30;4.20;;;;;;;;;;5060895;28;20032;-47
2023/08/05 09:21:24;;;;;;;9.18;3.65;;;;;;;;;;5060449;28;20452;-49
2023/08/05 09:23:54;;;;;;;10.95;3.95;;;;;;;;;;5060550;28;20020;-50
2023/08/05 09:26:31;;;;;;;9.05;4.03;;;;;;;;;;5058124;28;20466;-47
2023/08/05 09:28:59;;;;;;;8.23;3.72;;;;;;;;;;5060208;28;20482;-49
2023/08/05 09:31:26;;;;;;;9.52;3.88;;;;;;;;;;5056263;28;20036;-47
2023/08/05 09:33:53;;;;;;;7.72;3.67;;;;;;;;;;5060715;28;20439;-50
2023/08/05 09:36:24;;;;;;;9.32;3.80;;;;;;;;;;5059752;28;20436;-48
2023/08/05 09:39:06;;;;;;;10.27;3.97;;;;;;;;;;5058394;28;20029;-48
2023/08/05 09:41:35;;;;;;;8.75;3.70;;;;;;;;;;5058862;28;20376;-49
2023/08/05 09:44:04;;;;;;;6.40;3.30;;;;;;;;;;5059494;28;20430;-48
2023/08/05 09:46:39;;;;;;;7.60;3.30;;;;;;;;;;5061888;28;20371;-47
2023/08/05 09:49:17;;;;;;;10.75;3.45;;;;;;;;;;5060379;28;20068;-48
2023/08/05 09:51:50;;;;;;;11.43;3.85;;;;;;;;;;5065492;28;20062;-47
2023/08/05 09:54:23;;;;;;;8.00;3.10;;;;;;;;;;5065005;28;20064;-50
2023/08/05 09:56:50;;;;;;;8.95;3.38;;;;;;;;;;5061882;28;20032;-50
2023/08/05 09:59:17;;;;;;;6.53;3.38;;;;;;;;;;5063953;28;20051;-48
2023/08/05 10:01:46;;;;;;;7.60;3.10;;;;;;;;;;5065309;28;20074;-50
2023/08/05 10:04:16;;;;;;;10.45;3.53;;;;;;;;;;5064311;28;20039;-48
2023/08/05 10:06:43;;;;;;;6.25;3.30;;;;;;;;;;5063194;28;20378;-50
2023/08/05 10:09:11;;;;;;;9.48;3.45;;;;;;;;;;5064756;28;20494;-49
2023/08/05 10:11:38;;;;;;;8.45;3.47;;;;;;;;;;5064640;28;20566;-47
2023/08/05 10:14:06;;;;;;;8.07;3.70;;;;;;;;;;5062944;28;20095;-48
2023/08/05 10:16:33;;;;;;;6.97;3.15;;;;;;;;;;5064173;28;20012;-50
2023/08/05 10:19:00;;;;;;;7.25;3.08;;;;;;;;;;5064920;28;20036;-47
2023/08/05 10:21:44;;;;;;;5.05;2.63;;;;;;;;;;5060536;28;20037;-48
2023/08/05 10:24:11;;;;;;;7.43;2.92;;;;;;;;;;5061506;28;20112;-49
2023/08/05 10:26:43;;;;;;;7.13;2.90;;;;;;;;;;5063288;28;20036;-48
2023/08/05 10:29:29;;;;;;;6.90;3.10;;;;;;;;;;5061292;28;20103;-48
2023/08/05 10:32:09;;;;;;;5.38;2.58;;;;;;;;;;5062830;28;20040;-49
2023/08/05 10:34:36;;;;;;;7.55;2.90;;;;;;;;;;5062903;28;20029;-47
2023/08/05 10:37:03;;;;;;;7.78;3.03;;;;;;;;;;5062641;28;20017;-52
2023/08/05 10:39:39;;;;;;;6.40;3.05;;;;;;;;;;5064175;28;20478;-48
2023/08/05 10:42:21;;;;;;;7.45;3.08;;;;;;;;;;5058997;28;20036;-52
2023/08/05 10:44:54;;;;;;;5.40;2.95;;;;;;;;;;5061459;28;20028;-51
2023/08/05 10:47:24;;;;;;;6.63;3.03;;;;;;;;;;5064682;28;21712;-53
2023/08/05 10:49:58;;;;;;;7.15;3.10;;;;;;;;;;5061064;28;20020;-52
2023/08/05 10:52:25;;;;;;;7.10;3.20;;;;;;;;;;5060911;28;20040;-51
2023/08/05 10:54:56;;;;;;;6.30;2.65;;;;;;;;;;5064245;28;20027;-51
2023/08/05 10:57:35;;;;;;;6.20;2.85;;;;;;;;;;5062528;28;20033;-49
2023/08/05 11:00:03;;;;;;;5.95;2.72;;;;;;;;;;5062094;28;20029;-51
2023/08/05 11:02:31;;;;;;;5.95;2.53;;;;;;;;;;5062102;28;20041;-51
2023/08/05 11:05:07;;;;;;;5.63;2.67;;;;;;;;;;5063522;28;20063;-52
2023/08/05 11:07:39;;;;;;;5.63;2.67;;;;;;;;;;5058884;28;20037;-52
2023/08/05 11:10:06;;;;;;;4.80;2.70;;;;;;;;;;5053844;28;20054;-52
2023/08/05 11:12:33;;;;;;;10.43;3.05;;;;;;;;;;5053693;28;20122;-49
2023/08/05 11:15:01;;;;;;;4.70;2.58;;;;;;;;;;5053707;28;20061;-49
2023/08/05 11:17:28;;;;;;;6.70;2.40;;;;;;;;;;5053718;28;20021;-53
2023/08/05 11:19:57;;;;;;;4.88;2.55;;;;;;;;;;5053657;28;20106;-50
2023/08/05 11:22:25;;;;;;;5.18;2.22;;;;;;;;;;5053458;28;20037;-51
2023/08/05 11:24:58;;;;;;;7.15;2.65;;;;;;;;;;5053093;28;20033;-52
2023/08/05 11:27:31;;;;;;;5.10;2.42;;;;;;;;;;5053572;28;20025;-50
2023/08/05 11:29:58;;;;;;;6.32;2.33;;;;;;;;;;5053563;28;20029;-51
2023/08/05 11:32:25;;;;;;;7.85;2.22;;;;;;;;;;5069229;28;20024;-51
2023/08/05 11:35:01;;;;;;;5.32;2.58;;;;;;;;;;5073407;28;20041;-51
2023/08/05 11:37:34;;;;;;;10.10;2.45;;;;;;;;;;5073368;28;20029;-51
2023/08/05 11:40:02;;;;;;;6.80;2.65;;;;;;;;;;5073310;28;20056;-50
2023/08/05 11:42:31;;;;;;;6.80;2.25;;;;;;;;;;5073073;28;20078;-50
2023/08/05 11:44:58;;;;;;;5.15;2.78;;;;;;;;;;5073139;28;20043;-53
2023/08/05 11:47:25;;;;;;;4.25;2.00;;;;;;;;;;5073108;28;20025;-49
2023/08/05 11:49:53;;;;;;;7.40;2.35;;;;;;;;;;5066053;28;20422;-50
2023/08/05 11:52:20;;;;;;;7.05;2.33;;;;;;;;;;5052569;28;20116;-51
2023/08/05 11:54:59;;;;;;;6.03;2.50;;;;;;;;;;5051999;28;20430;-51
2023/08/05 11:57:27;;;;;;;4.28;2.17;;;;;;;;;;5050818;28;20044;-48
2023/08/05 11:59:57;;;;;;;5.43;2.50;;;;;;;;;;5051997;28;20364;-51
2023/08/05 12:02:24;;;;;;;5.03;2.10;;;;;;;;;;5051994;28;20075;-48
2023/08/05 12:04:52;;;;;;;5.53;2.08;;;;;;;;;;5052036;28;20513;-51
2023/08/05 12:07:21;;;;;;;6.28;2.40;;;;;;;;;;5055396;28;20028;-50
2023/08/05 12:10:07;;;;;;;3.88;1.90;;;;;;;;;;5054830;28;20047;-49
2023/08/05 12:12:34;;;;;;;6.53;2.33;;;;;;;;;;5052343;28;20099;-50
2023/08/05 12:15:10;;;;;;;4.75;2.10;;;;;;;;;;5052192;28;20116;-51
2023/08/05 12:17:38;;;;;;;7.07;2.15;;;;;;;;;;5046124;28;20048;-50
2023/08/05 12:20:07;;;;;;;6.53;1.88;;;;;;;;;;5053283;28;20486;-50
2023/08/05 12:22:34;;;;;;;10.93;2.60;;;;;;;;;;5069131;28;20028;-48
2023/08/05 12:25:01;;;;;;;8.25;2.40;;;;;;;;;;5071803;28;20036;-49
2023/08/05 12:27:27;;;;;;;12.13;2.15;;;;;;;;;;5071879;28;20036;-49
2023/08/05 12:29:54;;;;;;;5.07;2.30;;;;;;;;;;5072206;28;20051;-48
2023/08/05 12:32:21;;;;;;;12.82;2.03;;;;;;;;;;5071740;28;20056;-52
2023/08/05 12:34:48;;;;;;;8.43;2.30;;;;;;;;;;5071490;28;20032;-49
2023/08/05 12:37:15;;;;;;;7.55;2.45;;;;;;;;;;5071828;28;20032;-50
2023/08/05 12:39:42;;;;;;;12.82;1.80;;;;;;;;;;5071768;28;20036;-50
2023/08/05 12:42:09;;;;;;;11.45;2.28;;;;;;;;;;5070082;28;20657;-48
2023/08/05 12:44:36;;;;;;;8.38;2.63;;;;;;;;;;5071795;28;20024;-51
2023/08/05 12:47:03;;;;;;;8.70;2.67;;;;;;;;;;5069310;28;20456;-50
2023/08/05 12:49:30;;;;;;;11.88;2.15;;;;;;;;;;5047194;28;20396;-47
2023/08/05 12:51:57;;;;;;;8.55;2.50;;;;;;;;;;5066462;28;20058;-48
2023/08/05 12:54:24;;;;;;;13.77;2.53;;;;;;;;;;5070358;28;20047;-47
2023/08/05 12:56:51;;;;;;;17.38;2.55;;;;;;;;;;5068574;28;20021;-48
2023/08/05 12:59:18;;;;;;;16.27;2.95;;;;;;;;;;5067730;28;20057;-48
2023/08/05 13:01:45;;;;;;;12.15;2.83;;;;;;;;;;5051665;28;20063;-47
2023/08/05 13:04:12;;;;;;;11.55;2.78;;;;;;;;;;5051457;28;20035;-48
2023/08/05 13:06:40;;;;;;;16.73;3.78;;;;;;;;;;5051272;28;20631;-48
2023/08/05 13:09:07;;;;;;;21.35;4.00;;;;;;;;;;5051538;28;20423;-48
2023/08/05 13:11:33;;;;;;;27.88;4.03;;;;;;;;;;5051546;28;20113;-47
2023/08/05 13:14:00;;;;;;;36.80;5.43;;;;;;;;;;5051430;28;20127;-48
2023/08/05 13:16:27;;;;;;;21.02;5.03;;;;;;;;;;5051577;28;20032;-48
2023/08/05 13:18:54;;;;;;;20.85;4.63;;;;;;;;;;5051625;28;20772;-47
2023/08/05 13:21:21;;;;;;;25.02;4.88;;;;;;;;;;5051378;28;20387;-48
2023/08/05 13:23:48;;;;;;;22.92;4.80;;;;;;;;;;5051660;28;20029;-47
2023/08/05 13:26:15;;;;;;;25.17;4.95;;;;;;;;;;5051087;28;20411;-48
2023/08/05 13:28:42;;;;;;;33.47;5.40;;;;;;;;;;5051549;28;20032;-47
2023/08/05 13:31:09;;;;;;;23.85;5.20;;;;;;;;;;5051491;28;20036;-48
2023/08/05 13:33:36;;;;;;;22.70;4.53;;;;;;;;;;5051585;28;20033;-48
2023/08/05 13:36:03;;;;;;;22.80;4.45;;;;;;;;;;5051507;28;20132;-48
2023/08/05 13:38:30;;;;;;;28.55;4.95;;;;;;;;;;5051454;28;20021;-48
2023/08/05 13:40:57;;;;;;;21.10;4.82;;;;;;;;;;5051514;28;20509;-47
2023/08/05 13:43:24;;;;;;;24.40;5.28;;;;;;;;;;5051356;28;20029;-48
2023/08/05 13:45:56;;;;;;;20.08;4.88;;;;;;;;;;5051372;28;20049;-48
2023/08/05 13:48:25;;;;;;;19.58;4.53;;;;;;;;;;5051465;28;20383;-48
2023/08/05 13:51:01;;;;;;;22.55;4.75;;;;;;;;;;5051357;28;20021;-47
2023/08/05 13:53:28;;;;;;;27.17;4.45;;;;;;;;;;5051303;28;20113;-48
2023/08/05 13:55:56;;;;;;;19.77;4.45;;;;;;;;;;5051404;28;20029;-48
2023/08/05 13:58:23;;;;;;;20.63;5.00;;;;;;;;;;5051277;28;20025;-47
2023/08/05 14:00:50;;;;;;;17.15;4.15;;;;;;;;;;5051252;28;20430;-47
2023/08/05 14:03:17;;;;;;;20.20;4.65;;;;;;;;;;5051187;28;20029;-48
2023/08/05 14:05:44;;;;;;;20.10;4.93;;;;;;;;;;5051205;28;20044;-49
2023/08/05 14:08:11;;;;;;;19.33;4.95;;;;;;;;;;5051232;28;20029;-47
2023/08/05 14:10:38;;;;;;;17.17;4.32;;;;;;;;;;5051237;28;20036;-48
2023/08/05 14:13:05;;;;;;;20.35;3.97;;;;;;;;;;5051105;28;20090;-47
2023/08/05 14:15:34;;;;;;;16.70;4.07;;;;;;;;;;5051196;28;20025;-47
2023/08/05 14:18:01;;;;;;;25.70;4.88;;;;;;;;;;5051222;28;20098;-48
2023/08/05 14:20:28;;;;;;;16.50;3.97;;;;;;;;;;5051164;28;20072;-47
2023/08/05 14:22:55;;;;;;;18.65;4.25;;;;;;;;;;5049662;28;20040;-49
2023/08/05 14:25:22;;;;;;;17.52;4.25;;;;;;;;;;5050794;28;20056;-47
2023/08/05 14:27:49;;;;;;;19.02;4.53;;;;;;;;;;5051083;28;20090;-48
2023/08/05 14:30:17;;;;;;;20.33;4.18;;;;;;;;;;5051056;28;20025;-48